sensor_id;sensor_type;location;lat;lon;timestamp;P1;durP1;ratioP1;P2;durP2;ratioP2
20629;SDS011;17386;43.846;25.950;2022-11-25T00:01:55;10.93;;;3.65;;
20629;SDS011;17386;43.846;25.950;2022-11-25T00:04:20;8.98;;;4.05;;
20629;SDS011;17386;43.846;25.950;2022-11-25T00:06:45;6.03;;;3.38;;
20629;SDS011;17386;43.846;25.950;2022-11-25T00:09:11;8.75;;;4.30;;
20629;SDS011;17386;43.846;25.950;2022-11-25T00:11:38;7.50;;;3.97;;
20629;SDS011;17386;43.846;25.950;2022-11-25T00:14:05;8.38;;;3.92;;
20629;SDS011;17386;43.846;25.950;2022-11-25T00:16:32;8.05;;;3.80;;
20629;SDS011;17386;43.846;25.950;2022-11-25T00:18:58;9.25;;;3.90;;
20629;SDS011;17386;43.846;25.950;2022-11-25T00:21:25;7.13;;;3.83;;
20629;SDS011;17386;43.846;25.950;2022-11-25T00:23:53;6.25;;;3.25;;
20629;SDS011;17386;43.846;25.950;2022-11-25T00:26:23;8.40;;;3.55;;
20629;SDS011;17386;43.846;25.950;2022-11-25T00:28:50;7.68;;;4.10;;
20629;SDS011;17386;43.846;25.950;2022-11-25T00:31:17;6.88;;;3.72;;
20629;SDS011;17386;43.846;25.950;2022-11-25T00:33:46;7.07;;;3.65;;
20629;SDS011;17386;43.846;25.950;2022-11-25T00:36:20;8.18;;;3.80;;
20629;SDS011;17386;43.846;25.950;2022-11-25T00:38:54;7.10;;;3.78;;
20629;SDS011;17386;43.846;25.950;2022-11-25T00:41:24;8.50;;;3.80;;
20629;SDS011;17386;43.846;25.950;2022-11-25T00:44:09;6.95;;;3.78;;
20629;SDS011;17386;43.846;25.950;2022-11-25T00:46:54;8.25;;;3.85;;
20629;SDS011;17386;43.846;25.950;2022-11-25T00:49:20;8.43;;;4.00;;
20629;SDS011;17386;43.846;25.950;2022-11-25T00:51:45;8.45;;;3.78;;
20629;SDS011;17386;43.846;25.950;2022-11-25T00:54:11;7.03;;;3.85;;
20629;SDS011;17386;43.846;25.950;2022-11-25T00:56:36;8.10;;;4.10;;
20629;SDS011;17386;43.846;25.950;2022-11-25T00:59:02;7.35;;;3.83;;
20629;SDS011;17386;43.846;25.950;2022-11-25T01:01:28;8.68;;;3.63;;
20629;SDS011;17386;43.846;25.950;2022-11-25T01:03:53;7.57;;;4.13;;
20629;SDS011;17386;43.846;25.950;2022-11-25T01:06:19;7.68;;;4.38;;
20629;SDS011;17386;43.846;25.950;2022-11-25T01:08:45;8.90;;;4.07;;
20629;SDS011;17386;43.846;25.950;2022-11-25T01:11:11;7.40;;;3.83;;
20629;SDS011;17386;43.846;25.950;2022-11-25T01:13:38;9.27;;;4.13;;
20629;SDS011;17386;43.846;25.950;2022-11-25T01:16:05;8.30;;;3.78;;
20629;SDS011;17386;43.846;25.950;2022-11-25T01:18:31;7.90;;;3.85;;
20629;SDS011;17386;43.846;25.950;2022-11-25T01:21:31;9.50;;;4.10;;
20629;SDS011;17386;43.846;25.950;2022-11-25T01:23:50;7.78;;;4.05;;
20629;SDS011;17386;43.846;25.950;2022-11-25T01:26:18;9.73;;;3.40;;
20629;SDS011;17386;43.846;25.950;2022-11-25T01:28:46;8.02;;;3.70;;
20629;SDS011;17386;43.846;25.950;2022-11-25T01:31:16;8.63;;;4.20;;
20629;SDS011;17386;43.846;25.950;2022-11-25T01:33:44;7.55;;;3.58;;
20629;SDS011;17386;43.846;25.950;2022-11-25T01:36:14;7.28;;;3.45;;
20629;SDS011;17386;43.846;25.950;2022-11-25T01:38:42;7.45;;;3.75;;
20629;SDS011;17386;43.846;25.950;2022-11-25T01:41:09;9.65;;;3.88;;
20629;SDS011;17386;43.846;25.950;2022-11-25T01:43:36;9.60;;;4.10;;
20629;SDS011;17386;43.846;25.950;2022-11-25T01:48:50;6.72;;;3.72;;
20629;SDS011;17386;43.846;25.950;2022-11-25T01:51:35;5.65;;;3.40;;
20629;SDS011;17386;43.846;25.950;2022-11-25T01:54:09;5.38;;;3.17;;
20629;SDS011;17386;43.846;25.950;2022-11-25T01:56:42;8.82;;;3.60;;
20629;SDS011;17386;43.846;25.950;2022-11-25T01:59:13;7.32;;;3.60;;
20629;SDS011;17386;43.846;25.950;2022-11-25T02:01:38;5.78;;;3.22;;
20629;SDS011;17386;43.846;25.950;2022-11-25T02:04:04;7.05;;;3.53;;
20629;SDS011;17386;43.846;25.950;2022-11-25T02:06:31;9.30;;;4.05;;
20629;SDS011;17386;43.846;25.950;2022-11-25T02:09:04;6.40;;;3.50;;
20629;SDS011;17386;43.846;25.950;2022-11-25T02:11:31;6.40;;;3.70;;
20629;SDS011;17386;43.846;25.950;2022-11-25T02:16:25;8.25;;;3.58;;
20629;SDS011;17386;43.846;25.950;2022-11-25T02:18:50;7.40;;;3.55;;
20629;SDS011;17386;43.846;25.950;2022-11-25T02:21:17;6.88;;;3.70;;
20629;SDS011;17386;43.846;25.950;2022-11-25T02:23:59;9.25;;;3.78;;
20629;SDS011;17386;43.846;25.950;2022-11-25T02:26:31;8.23;;;3.60;;
20629;SDS011;17386;43.846;25.950;2022-11-25T02:28:56;7.78;;;3.47;;
20629;SDS011;17386;43.846;25.950;2022-11-25T02:31:22;7.70;;;3.60;;
20629;SDS011;17386;43.846;25.950;2022-11-25T02:33:48;7.35;;;3.97;;
20629;SDS011;17386;43.846;25.950;2022-11-25T02:36:17;6.15;;;3.58;;
20629;SDS011;17386;43.846;25.950;2022-11-25T02:41:31;8.55;;;4.05;;
20629;SDS011;17386;43.846;25.950;2022-11-25T02:44:06;9.32;;;4.10;;
20629;SDS011;17386;43.846;25.950;2022-11-25T02:46:32;9.52;;;4.30;;
20629;SDS011;17386;43.846;25.950;2022-11-25T02:48:57;10.18;;;4.05;;
20629;SDS011;17386;43.846;25.950;2022-11-25T02:51:25;7.88;;;3.80;;
20629;SDS011;17386;43.846;25.950;2022-11-25T02:53:53;8.23;;;3.95;;
20629;SDS011;17386;43.846;25.950;2022-11-25T02:56:21;7.70;;;4.20;;
20629;SDS011;17386;43.846;25.950;2022-11-25T02:58:49;7.30;;;3.90;;
20629;SDS011;17386;43.846;25.950;2022-11-25T03:01:14;7.15;;;3.53;;
20629;SDS011;17386;43.846;25.950;2022-11-25T03:03:40;9.70;;;4.20;;
20629;SDS011;17386;43.846;25.950;2022-11-25T03:06:06;8.23;;;4.32;;
20629;SDS011;17386;43.846;25.950;2022-11-25T03:08:32;9.48;;;4.47;;
20629;SDS011;17386;43.846;25.950;2022-11-25T03:10:57;8.55;;;4.32;;
20629;SDS011;17386;43.846;25.950;2022-11-25T03:13:23;8.23;;;4.35;;
20629;SDS011;17386;43.846;25.950;2022-11-25T03:15:49;7.97;;;4.13;;
20629;SDS011;17386;43.846;25.950;2022-11-25T03:18:14;8.25;;;3.97;;
20629;SDS011;17386;43.846;25.950;2022-11-25T03:20:39;7.75;;;4.22;;
20629;SDS011;17386;43.846;25.950;2022-11-25T03:23:05;7.68;;;3.95;;
20629;SDS011;17386;43.846;25.950;2022-11-25T03:25:31;8.95;;;4.40;;
20629;SDS011;17386;43.846;25.950;2022-11-25T03:27:58;10.48;;;4.45;;
20629;SDS011;17386;43.846;25.950;2022-11-25T03:30:24;8.38;;;4.20;;
20629;SDS011;17386;43.846;25.950;2022-11-25T03:32:51;8.88;;;4.70;;
20629;SDS011;17386;43.846;25.950;2022-11-25T03:35:16;9.35;;;4.80;;
20629;SDS011;17386;43.846;25.950;2022-11-25T03:37:42;11.77;;;4.60;;
20629;SDS011;17386;43.846;25.950;2022-11-25T03:40:08;7.93;;;4.15;;
20629;SDS011;17386;43.846;25.950;2022-11-25T03:42:35;7.93;;;4.57;;
20629;SDS011;17386;43.846;25.950;2022-11-25T03:45:00;9.40;;;4.55;;
20629;SDS011;17386;43.846;25.950;2022-11-25T03:47:27;8.73;;;4.38;;
20629;SDS011;17386;43.846;25.950;2022-11-25T03:49:52;9.43;;;4.47;;
20629;SDS011;17386;43.846;25.950;2022-11-25T03:52:18;8.63;;;4.50;;
20629;SDS011;17386;43.846;25.950;2022-11-25T03:54:43;9.35;;;5.00;;
20629;SDS011;17386;43.846;25.950;2022-11-25T03:57:08;11.88;;;5.10;;
20629;SDS011;17386;43.846;25.950;2022-11-25T03:59:34;11.00;;;4.95;;
20629;SDS011;17386;43.846;25.950;2022-11-25T04:01:59;10.15;;;4.75;;
20629;SDS011;17386;43.846;25.950;2022-11-25T04:04:25;8.82;;;4.93;;
20629;SDS011;17386;43.846;25.950;2022-11-25T04:06:50;9.82;;;4.80;;
20629;SDS011;17386;43.846;25.950;2022-11-25T04:09:16;9.57;;;5.05;;
20629;SDS011;17386;43.846;25.950;2022-11-25T04:11:41;7.68;;;4.88;;
20629;SDS011;17386;43.846;25.950;2022-11-25T04:14:25;12.60;;;5.40;;
20629;SDS011;17386;43.846;25.950;2022-11-25T04:16:51;10.45;;;4.80;;
20629;SDS011;17386;43.846;25.950;2022-11-25T04:19:16;11.45;;;5.10;;
20629;SDS011;17386;43.846;25.950;2022-11-25T04:21:42;9.02;;;4.55;;
20629;SDS011;17386;43.846;25.950;2022-11-25T04:24:07;10.18;;;5.43;;
20629;SDS011;17386;43.846;25.950;2022-11-25T04:26:33;11.20;;;5.50;;
20629;SDS011;17386;43.846;25.950;2022-11-25T04:28:58;11.30;;;5.63;;
20629;SDS011;17386;43.846;25.950;2022-11-25T04:31:24;9.40;;;5.30;;
20629;SDS011;17386;43.846;25.950;2022-11-25T04:33:49;10.43;;;4.90;;
20629;SDS011;17386;43.846;25.950;2022-11-25T04:36:14;13.05;;;5.45;;
20629;SDS011;17386;43.846;25.950;2022-11-25T04:38:40;15.00;;;6.38;;
20629;SDS011;17386;43.846;25.950;2022-11-25T04:41:06;9.55;;;5.50;;
20629;SDS011;17386;43.846;25.950;2022-11-25T04:43:31;12.60;;;5.75;;
20629;SDS011;17386;43.846;25.950;2022-11-25T04:45:57;9.38;;;5.22;;
20629;SDS011;17386;43.846;25.950;2022-11-25T04:48:22;10.50;;;5.40;;
20629;SDS011;17386;43.846;25.950;2022-11-25T04:50:48;11.10;;;5.93;;
20629;SDS011;17386;43.846;25.950;2022-11-25T04:53:14;11.48;;;5.30;;
20629;SDS011;17386;43.846;25.950;2022-11-25T04:55:39;13.25;;;5.93;;
20629;SDS011;17386;43.846;25.950;2022-11-25T04:58:05;10.48;;;5.38;;
20629;SDS011;17386;43.846;25.950;2022-11-25T05:00:30;10.63;;;5.78;;
20629;SDS011;17386;43.846;25.950;2022-11-25T05:02:55;14.20;;;6.43;;
20629;SDS011;17386;43.846;25.950;2022-11-25T05:05:21;13.68;;;6.22;;
20629;SDS011;17386;43.846;25.950;2022-11-25T05:07:46;10.70;;;6.10;;
20629;SDS011;17386;43.846;25.950;2022-11-25T05:10:12;12.38;;;6.80;;
20629;SDS011;17386;43.846;25.950;2022-11-25T05:12:38;11.48;;;6.20;;
20629;SDS011;17386;43.846;25.950;2022-11-25T05:15:04;12.45;;;7.18;;
20629;SDS011;17386;43.846;25.950;2022-11-25T05:17:30;11.23;;;6.10;;
20629;SDS011;17386;43.846;25.950;2022-11-25T05:19:56;14.30;;;7.20;;
20629;SDS011;17386;43.846;25.950;2022-11-25T05:22:24;12.43;;;5.95;;
20629;SDS011;17386;43.846;25.950;2022-11-25T05:24:51;12.63;;;6.93;;
20629;SDS011;17386;43.846;25.950;2022-11-25T05:27:16;13.52;;;6.72;;
20629;SDS011;17386;43.846;25.950;2022-11-25T05:29:43;10.95;;;5.72;;
20629;SDS011;17386;43.846;25.950;2022-11-25T05:32:09;12.75;;;6.13;;
20629;SDS011;17386;43.846;25.950;2022-11-25T05:34:35;12.27;;;6.18;;
20629;SDS011;17386;43.846;25.950;2022-11-25T05:37:00;13.93;;;6.55;;
20629;SDS011;17386;43.846;25.950;2022-11-25T05:39:26;11.63;;;5.90;;
20629;SDS011;17386;43.846;25.950;2022-11-25T05:41:52;11.98;;;6.10;;
20629;SDS011;17386;43.846;25.950;2022-11-25T05:44:17;12.93;;;6.00;;
20629;SDS011;17386;43.846;25.950;2022-11-25T05:46:43;11.55;;;6.22;;
20629;SDS011;17386;43.846;25.950;2022-11-25T05:49:10;13.95;;;6.63;;
20629;SDS011;17386;43.846;25.950;2022-11-25T05:51:36;16.83;;;7.85;;
20629;SDS011;17386;43.846;25.950;2022-11-25T05:54:02;16.58;;;7.35;;
20629;SDS011;17386;43.846;25.950;2022-11-25T05:56:28;14.85;;;7.65;;
20629;SDS011;17386;43.846;25.950;2022-11-25T05:58:53;12.73;;;6.70;;
20629;SDS011;17386;43.846;25.950;2022-11-25T06:01:19;12.50;;;6.43;;
20629;SDS011;17386;43.846;25.950;2022-11-25T06:03:45;12.48;;;6.60;;
20629;SDS011;17386;43.846;25.950;2022-11-25T06:06:10;11.05;;;6.30;;
20629;SDS011;17386;43.846;25.950;2022-11-25T06:08:36;12.30;;;5.40;;
20629;SDS011;17386;43.846;25.950;2022-11-25T06:11:06;10.23;;;5.82;;
20629;SDS011;17386;43.846;25.950;2022-11-25T06:13:39;13.00;;;6.03;;
20629;SDS011;17386;43.846;25.950;2022-11-25T06:16:09;12.23;;;6.07;;
20629;SDS011;17386;43.846;25.950;2022-11-25T06:18:36;13.13;;;5.75;;
20629;SDS011;17386;43.846;25.950;2022-11-25T06:21:02;11.57;;;5.65;;
20629;SDS011;17386;43.846;25.950;2022-11-25T06:23:29;11.80;;;5.63;;
20629;SDS011;17386;43.846;25.950;2022-11-25T06:26:01;10.88;;;6.22;;
20629;SDS011;17386;43.846;25.950;2022-11-25T06:28:35;12.38;;;5.60;;
20629;SDS011;17386;43.846;25.950;2022-11-25T06:31:04;12.95;;;6.45;;
20629;SDS011;17386;43.846;25.950;2022-11-25T06:33:34;13.05;;;6.22;;
20629;SDS011;17386;43.846;25.950;2022-11-25T06:36:03;13.27;;;6.60;;
20629;SDS011;17386;43.846;25.950;2022-11-25T06:38:30;11.93;;;6.28;;
20629;SDS011;17386;43.846;25.950;2022-11-25T06:41:00;10.65;;;6.70;;
20629;SDS011;17386;43.846;25.950;2022-11-25T06:43:29;11.82;;;6.65;;
20629;SDS011;17386;43.846;25.950;2022-11-25T06:46:12;11.02;;;5.38;;
20629;SDS011;17386;43.846;25.950;2022-11-25T06:48:39;11.55;;;5.90;;
20629;SDS011;17386;43.846;25.950;2022-11-25T06:51:06;13.13;;;6.18;;
20629;SDS011;17386;43.846;25.950;2022-11-25T06:53:35;11.80;;;5.50;;
20629;SDS011;17386;43.846;25.950;2022-11-25T06:56:05;15.93;;;6.13;;
20629;SDS011;17386;43.846;25.950;2022-11-25T06:58:32;10.70;;;5.70;;
20629;SDS011;17386;43.846;25.950;2022-11-25T07:01:05;12.50;;;6.20;;
20629;SDS011;17386;43.846;25.950;2022-11-25T07:03:33;11.15;;;5.43;;
20629;SDS011;17386;43.846;25.950;2022-11-25T07:05:58;15.18;;;6.55;;
20629;SDS011;17386;43.846;25.950;2022-11-25T07:08:25;11.90;;;6.35;;
20629;SDS011;17386;43.846;25.950;2022-11-25T07:10:51;14.73;;;6.00;;
20629;SDS011;17386;43.846;25.950;2022-11-25T07:13:17;14.82;;;5.70;;
20629;SDS011;17386;43.846;25.950;2022-11-25T07:15:42;10.15;;;5.32;;
20629;SDS011;17386;43.846;25.950;2022-11-25T07:18:08;11.00;;;5.85;;
20629;SDS011;17386;43.846;25.950;2022-11-25T07:20:33;12.30;;;5.32;;
20629;SDS011;17386;43.846;25.950;2022-11-25T07:22:58;12.40;;;6.38;;
20629;SDS011;17386;43.846;25.950;2022-11-25T07:25:24;11.20;;;5.63;;
20629;SDS011;17386;43.846;25.950;2022-11-25T07:27:49;11.77;;;5.97;;
20629;SDS011;17386;43.846;25.950;2022-11-25T07:30:15;10.93;;;5.25;;
20629;SDS011;17386;43.846;25.950;2022-11-25T07:32:40;11.90;;;5.85;;
20629;SDS011;17386;43.846;25.950;2022-11-25T07:35:06;9.50;;;5.57;;
20629;SDS011;17386;43.846;25.950;2022-11-25T07:37:32;11.20;;;5.85;;
20629;SDS011;17386;43.846;25.950;2022-11-25T07:39:57;11.23;;;5.13;;
20629;SDS011;17386;43.846;25.950;2022-11-25T07:42:22;14.52;;;5.55;;
20629;SDS011;17386;43.846;25.950;2022-11-25T07:44:48;11.00;;;5.63;;
20629;SDS011;17386;43.846;25.950;2022-11-25T07:47:13;11.63;;;5.20;;
20629;SDS011;17386;43.846;25.950;2022-11-25T07:49:39;10.07;;;5.40;;
20629;SDS011;17386;43.846;25.950;2022-11-25T07:52:04;10.27;;;5.88;;
20629;SDS011;17386;43.846;25.950;2022-11-25T07:54:30;13.60;;;5.47;;
20629;SDS011;17386;43.846;25.950;2022-11-25T07:56:57;16.05;;;5.63;;
20629;SDS011;17386;43.846;25.950;2022-11-25T07:59:22;9.88;;;5.55;;
20629;SDS011;17386;43.846;25.950;2022-11-25T08:01:49;10.95;;;5.07;;
20629;SDS011;17386;43.846;25.950;2022-11-25T08:04:15;10.88;;;5.43;;
20629;SDS011;17386;43.846;25.950;2022-11-25T08:06:41;8.95;;;5.18;;
20629;SDS011;17386;43.846;25.950;2022-11-25T08:09:12;10.15;;;5.25;;
20629;SDS011;17386;43.846;25.950;2022-11-25T08:11:40;12.32;;;5.57;;
20629;SDS011;17386;43.846;25.950;2022-11-25T08:14:06;10.38;;;5.75;;
20629;SDS011;17386;43.846;25.950;2022-11-25T08:16:32;11.10;;;5.03;;
20629;SDS011;17386;43.846;25.950;2022-11-25T08:18:58;13.05;;;5.85;;
20629;SDS011;17386;43.846;25.950;2022-11-25T08:21:25;11.43;;;5.50;;
20629;SDS011;17386;43.846;25.950;2022-11-25T08:23:52;10.35;;;4.85;;
20629;SDS011;17386;43.846;25.950;2022-11-25T08:28:43;12.10;;;5.53;;
20629;SDS011;17386;43.846;25.950;2022-11-25T08:31:10;8.85;;;5.05;;
20629;SDS011;17386;43.846;25.950;2022-11-25T08:33:37;9.18;;;4.90;;
20629;SDS011;17386;43.846;25.950;2022-11-25T08:36:04;11.43;;;4.65;;
20629;SDS011;17386;43.846;25.950;2022-11-25T08:38:30;9.38;;;4.85;;
20629;SDS011;17386;43.846;25.950;2022-11-25T08:40:56;10.20;;;5.20;;
20629;SDS011;17386;43.846;25.950;2022-11-25T08:43:22;12.27;;;5.43;;
20629;SDS011;17386;43.846;25.950;2022-11-25T08:45:48;11.13;;;5.10;;
20629;SDS011;17386;43.846;25.950;2022-11-25T08:48:15;9.05;;;5.07;;
20629;SDS011;17386;43.846;25.950;2022-11-25T08:50:44;9.45;;;4.90;;
20629;SDS011;17386;43.846;25.950;2022-11-25T08:53:11;10.23;;;5.00;;
20629;SDS011;17386;43.846;25.950;2022-11-25T08:55:37;12.85;;;5.68;;
20629;SDS011;17386;43.846;25.950;2022-11-25T08:58:03;10.88;;;5.07;;
20629;SDS011;17386;43.846;25.950;2022-11-25T09:00:30;12.88;;;5.18;;
20629;SDS011;17386;43.846;25.950;2022-11-25T09:02:55;7.47;;;4.25;;
20629;SDS011;17386;43.846;25.950;2022-11-25T09:05:21;8.60;;;4.75;;
20629;SDS011;17386;43.846;25.950;2022-11-25T09:07:46;9.60;;;4.43;;
20629;SDS011;17386;43.846;25.950;2022-11-25T09:10:13;9.23;;;4.93;;
20629;SDS011;17386;43.846;25.950;2022-11-25T09:12:39;10.50;;;5.15;;
20629;SDS011;17386;43.846;25.950;2022-11-25T09:15:05;9.93;;;4.60;;
20629;SDS011;17386;43.846;25.950;2022-11-25T09:17:31;9.55;;;4.18;;
20629;SDS011;17386;43.846;25.950;2022-11-25T09:19:58;10.82;;;4.85;;
20629;SDS011;17386;43.846;25.950;2022-11-25T09:22:23;12.73;;;5.88;;
20629;SDS011;17386;43.846;25.950;2022-11-25T09:24:49;17.63;;;6.53;;
20629;SDS011;17386;43.846;25.950;2022-11-25T09:27:14;13.02;;;6.38;;
20629;SDS011;17386;43.846;25.950;2022-11-25T09:29:40;9.98;;;4.93;;
20629;SDS011;17386;43.846;25.950;2022-11-25T09:32:05;13.43;;;5.70;;
20629;SDS011;17386;43.846;25.950;2022-11-25T09:34:30;26.40;;;7.00;;
20629;SDS011;17386;43.846;25.950;2022-11-25T09:36:56;15.40;;;6.05;;
20629;SDS011;17386;43.846;25.950;2022-11-25T09:39:21;16.88;;;7.13;;
20629;SDS011;17386;43.846;25.950;2022-11-25T09:42:01;15.95;;;6.55;;
20629;SDS011;17386;43.846;25.950;2022-11-25T09:44:58;10.35;;;5.10;;
20629;SDS011;17386;43.846;25.950;2022-11-25T09:50:47;16.25;;;6.32;;
20629;SDS011;17386;43.846;25.950;2022-11-25T09:56:10;11.73;;;6.53;;
20629;SDS011;17386;43.846;25.950;2022-11-25T09:58:45;9.25;;;5.13;;
20629;SDS011;17386;43.846;25.950;2022-11-25T10:01:16;8.60;;;5.15;;
20629;SDS011;17386;43.846;25.950;2022-11-25T10:03:46;8.13;;;4.80;;
20629;SDS011;17386;43.846;25.950;2022-11-25T10:06:18;7.97;;;4.80;;
20629;SDS011;17386;43.846;25.950;2022-11-25T10:08:50;10.15;;;5.40;;
20629;SDS011;17386;43.846;25.950;2022-11-25T10:27:09;12.68;;;5.70;;
20629;SDS011;17386;43.846;25.950;2022-11-25T10:29:43;12.38;;;5.68;;
20629;SDS011;17386;43.846;25.950;2022-11-25T10:32:19;13.35;;;6.32;;
20629;SDS011;17386;43.846;25.950;2022-11-25T10:34:57;9.18;;;4.65;;
20629;SDS011;17386;43.846;25.950;2022-11-25T10:37:30;8.57;;;5.00;;
20629;SDS011;17386;43.846;25.950;2022-11-25T10:40:01;7.65;;;4.25;;
20629;SDS011;17386;43.846;25.950;2022-11-25T10:42:27;14.82;;;4.93;;
20629;SDS011;17386;43.846;25.950;2022-11-25T10:44:53;15.88;;;7.05;;
20629;SDS011;17386;43.846;25.950;2022-11-25T10:52:49;10.07;;;4.55;;
20629;SDS011;17386;43.846;25.950;2022-11-25T10:55:22;7.50;;;4.32;;
20629;SDS011;17386;43.846;25.950;2022-11-25T10:57:50;7.43;;;4.90;;
20629;SDS011;17386;43.846;25.950;2022-11-25T11:00:30;8.77;;;4.47;;
20629;SDS011;17386;43.846;25.950;2022-11-25T11:03:11;10.10;;;5.22;;
20629;SDS011;17386;43.846;25.950;2022-11-25T11:05:42;10.20;;;5.13;;
20629;SDS011;17386;43.846;25.950;2022-11-25T11:10:37;11.27;;;6.67;;
20629;SDS011;17386;43.846;25.950;2022-11-25T11:13:04;9.43;;;5.05;;
20629;SDS011;17386;43.846;25.950;2022-11-25T11:18:40;12.63;;;6.18;;
20629;SDS011;17386;43.846;25.950;2022-11-25T11:21:01;13.70;;;6.45;;
20629;SDS011;17386;43.846;25.950;2022-11-25T11:23:29;13.35;;;6.53;;
20629;SDS011;17386;43.846;25.950;2022-11-25T11:26:02;12.43;;;6.35;;
20629;SDS011;17386;43.846;25.950;2022-11-25T11:31:18;11.43;;;6.28;;
20629;SDS011;17386;43.846;25.950;2022-11-25T11:36:40;13.70;;;6.85;;
20629;SDS011;17386;43.846;25.950;2022-11-25T11:41:37;12.82;;;6.57;;
20629;SDS011;17386;43.846;25.950;2022-11-25T11:44:11;13.27;;;6.68;;
20629;SDS011;17386;43.846;25.950;2022-11-25T11:49:32;11.07;;;5.80;;
20629;SDS011;17386;43.846;25.950;2022-11-25T12:00:21;12.65;;;6.00;;
20629;SDS011;17386;43.846;25.950;2022-11-25T12:02:52;11.85;;;6.78;;
20629;SDS011;17386;43.846;25.950;2022-11-25T12:05:25;12.15;;;6.60;;
20629;SDS011;17386;43.846;25.950;2022-11-25T12:08:03;12.73;;;6.53;;
20629;SDS011;17386;43.846;25.950;2022-11-25T12:10:50;11.77;;;7.07;;
20629;SDS011;17386;43.846;25.950;2022-11-25T12:16:07;14.88;;;6.88;;
20629;SDS011;17386;43.846;25.950;2022-11-25T12:21:04;12.83;;;6.63;;
20629;SDS011;17386;43.846;25.950;2022-11-25T12:26:23;13.45;;;7.80;;
20629;SDS011;17386;43.846;25.950;2022-11-25T12:28:59;12.75;;;6.97;;
20629;SDS011;17386;43.846;25.950;2022-11-25T12:31:31;12.25;;;7.10;;
20629;SDS011;17386;43.846;25.950;2022-11-25T12:34:05;11.10;;;6.22;;
20629;SDS011;17386;43.846;25.950;2022-11-25T12:36:36;11.23;;;6.30;;
20629;SDS011;17386;43.846;25.950;2022-11-25T12:39:05;13.73;;;6.95;;
20629;SDS011;17386;43.846;25.950;2022-11-25T12:41:44;12.63;;;6.07;;
20629;SDS011;17386;43.846;25.950;2022-11-25T12:46:59;11.48;;;6.10;;
20629;SDS011;17386;43.846;25.950;2022-11-25T12:49:29;10.85;;;6.03;;
20629;SDS011;17386;43.846;25.950;2022-11-25T13:00:09;14.43;;;7.22;;
20629;SDS011;17386;43.846;25.950;2022-11-25T13:03:21;13.63;;;7.30;;
20629;SDS011;17386;43.846;25.950;2022-11-25T13:14:28;14.50;;;7.53;;
20629;SDS011;17386;43.846;25.950;2022-11-25T13:17:08;20.40;;;7.22;;
20629;SDS011;17386;43.846;25.950;2022-11-25T13:19:37;20.10;;;8.43;;
20629;SDS011;17386;43.846;25.950;2022-11-25T13:24:47;19.30;;;8.60;;
20629;SDS011;17386;43.846;25.950;2022-11-25T13:27:29;18.33;;;8.75;;
20629;SDS011;17386;43.846;25.950;2022-11-25T13:29:56;14.57;;;7.45;;
20629;SDS011;17386;43.846;25.950;2022-11-25T13:32:24;16.38;;;7.50;;
20629;SDS011;17386;43.846;25.950;2022-11-25T13:37:49;17.90;;;8.10;;
20629;SDS011;17386;43.846;25.950;2022-11-25T13:42:43;15.88;;;7.53;;
20629;SDS011;17386;43.846;25.950;2022-11-25T13:45:20;16.70;;;7.88;;
20629;SDS011;17386;43.846;25.950;2022-11-25T13:47:50;15.15;;;7.53;;
20629;SDS011;17386;43.846;25.950;2022-11-25T13:50:21;18.95;;;8.05;;
20629;SDS011;17386;43.846;25.950;2022-11-25T13:58:00;18.55;;;7.75;;
20629;SDS011;17386;43.846;25.950;2022-11-25T14:00:49;21.27;;;8.07;;
20629;SDS011;17386;43.846;25.950;2022-11-25T14:06:11;19.10;;;8.15;;
20629;SDS011;17386;43.846;25.950;2022-11-25T14:08:53;18.90;;;8.65;;
20629;SDS011;17386;43.846;25.950;2022-11-25T14:22:49;16.98;;;8.02;;
20629;SDS011;17386;43.846;25.950;2022-11-25T14:25:21;20.30;;;7.93;;
20629;SDS011;17386;43.846;25.950;2022-11-25T14:28:28;18.88;;;8.15;;
20629;SDS011;17386;43.846;25.950;2022-11-25T14:30:59;20.13;;;8.88;;
20629;SDS011;17386;43.846;25.950;2022-11-25T14:33:43;18.58;;;7.75;;
20629;SDS011;17386;43.846;25.950;2022-11-25T14:36:18;20.85;;;8.63;;
20629;SDS011;17386;43.846;25.950;2022-11-25T14:38:53;16.05;;;6.97;;
20629;SDS011;17386;43.846;25.950;2022-11-25T14:41:27;16.38;;;7.07;;
20629;SDS011;17386;43.846;25.950;2022-11-25T14:43:59;18.35;;;8.27;;
20629;SDS011;17386;43.846;25.950;2022-11-25T14:46:31;18.55;;;7.75;;
20629;SDS011;17386;43.846;25.950;2022-11-25T14:48:57;17.13;;;8.30;;
20629;SDS011;17386;43.846;25.950;2022-11-25T14:51:25;21.70;;;8.25;;
20629;SDS011;17386;43.846;25.950;2022-11-25T14:53:57;20.13;;;7.88;;
20629;SDS011;17386;43.846;25.950;2022-11-25T14:56:25;17.70;;;8.65;;
20629;SDS011;17386;43.846;25.950;2022-11-25T14:58:53;24.98;;;9.60;;
20629;SDS011;17386;43.846;25.950;2022-11-25T15:01:22;22.13;;;8.60;;
20629;SDS011;17386;43.846;25.950;2022-11-25T15:06:34;22.00;;;9.73;;
20629;SDS011;17386;43.846;25.950;2022-11-25T15:09:03;24.65;;;9.95;;
20629;SDS011;17386;43.846;25.950;2022-11-25T15:11:41;23.25;;;10.55;;
20629;SDS011;17386;43.846;25.950;2022-11-25T15:14:10;21.42;;;9.55;;
20629;SDS011;17386;43.846;25.950;2022-11-25T15:16:42;24.00;;;9.35;;
20629;SDS011;17386;43.846;25.950;2022-11-25T15:19:14;24.25;;;9.75;;
20629;SDS011;17386;43.846;25.950;2022-11-25T15:21:42;25.10;;;8.75;;
20629;SDS011;17386;43.846;25.950;2022-11-25T15:24:25;16.42;;;8.05;;
20629;SDS011;17386;43.846;25.950;2022-11-25T15:26:54;18.77;;;8.13;;
20629;SDS011;17386;43.846;25.950;2022-11-25T15:29:21;19.23;;;8.23;;
20629;SDS011;17386;43.846;25.950;2022-11-25T15:31:47;18.02;;;7.60;;
20629;SDS011;17386;43.846;25.950;2022-11-25T15:34:15;21.13;;;8.05;;
20629;SDS011;17386;43.846;25.950;2022-11-25T15:36:43;21.75;;;9.52;;
20629;SDS011;17386;43.846;25.950;2022-11-25T15:41:46;22.70;;;9.10;;
20629;SDS011;17386;43.846;25.950;2022-11-25T15:44:20;18.67;;;8.35;;
20629;SDS011;17386;43.846;25.950;2022-11-25T15:46:53;24.00;;;9.43;;
20629;SDS011;17386;43.846;25.950;2022-11-25T15:49:23;22.48;;;9.82;;
20629;SDS011;17386;43.846;25.950;2022-11-25T15:51:50;26.60;;;10.25;;
20629;SDS011;17386;43.846;25.950;2022-11-25T15:54:22;26.83;;;10.82;;
20629;SDS011;17386;43.846;25.950;2022-11-25T15:56:56;21.42;;;10.13;;
20629;SDS011;17386;43.846;25.950;2022-11-25T16:00:03;19.85;;;9.13;;
20629;SDS011;17386;43.846;25.950;2022-11-25T16:02:53;21.65;;;9.50;;
20629;SDS011;17386;43.846;25.950;2022-11-25T16:07:36;20.48;;;9.07;;
20629;SDS011;17386;43.846;25.950;2022-11-25T16:10:32;25.45;;;10.13;;
20629;SDS011;17386;43.846;25.950;2022-11-25T16:24:08;24.63;;;11.35;;
20629;SDS011;17386;43.846;25.950;2022-11-25T16:26:55;26.63;;;10.55;;
20629;SDS011;17386;43.846;25.950;2022-11-25T16:29:33;26.70;;;12.75;;
20629;SDS011;17386;43.846;25.950;2022-11-25T16:32:11;21.65;;;10.25;;
20629;SDS011;17386;43.846;25.950;2022-11-25T16:34:38;24.13;;;9.63;;
20629;SDS011;17386;43.846;25.950;2022-11-25T16:37:04;23.90;;;10.00;;
20629;SDS011;17386;43.846;25.950;2022-11-25T16:39:29;27.52;;;11.77;;
20629;SDS011;17386;43.846;25.950;2022-11-25T16:41:55;25.48;;;10.02;;
20629;SDS011;17386;43.846;25.950;2022-11-25T16:44:23;26.85;;;10.55;;
20629;SDS011;17386;43.846;25.950;2022-11-25T16:46:50;24.00;;;9.02;;
20629;SDS011;17386;43.846;25.950;2022-11-25T16:49:16;26.15;;;9.90;;
20629;SDS011;17386;43.846;25.950;2022-11-25T16:51:43;23.73;;;9.15;;
20629;SDS011;17386;43.846;25.950;2022-11-25T16:54:10;20.27;;;8.38;;